createdAt,value
2023-02-08T00:00:43.223Z,21.1
2023-02-08T00:03:45.194Z,25
2023-02-08T00:06:47.149Z,20.2
2023-02-08T00:09:49.112Z,18.6
2023-02-08T00:12:51.046Z,21.6
2023-02-08T00:15:53.044Z,18.5
2023-02-08T00:18:55.015Z,20.3
2023-02-08T00:21:56.958Z,23.2
2023-02-08T00:24:58.973Z,24.4
2023-02-08T00:28:02.738Z,24.5
2023-02-08T00:31:02.879Z,23.9
2023-02-08T00:34:04.844Z,24
2023-02-08T00:37:06.806Z,20.2
2023-02-08T00:40:08.750Z,21.3
2023-02-08T00:43:10.680Z,24.1
2023-02-08T00:46:12.730Z,21.4
2023-02-08T00:49:14.615Z,21
2023-02-08T00:52:16.606Z,20.7
2023-02-08T00:55:18.531Z,18.5
2023-02-08T00:58:20.530Z,19.8
2023-02-08T01:01:22.449Z,19.7
2023-02-08T01:04:24.414Z,21.5
2023-02-08T01:07:26.387Z,17.3
2023-02-08T01:10:28.354Z,20.3
2023-02-08T01:13:30.293Z,19.9
2023-02-08T01:16:32.324Z,20.7
2023-02-08T01:19:34.210Z,18.3
2023-02-08T01:22:36.187Z,17.4
2023-02-08T01:25:38.164Z,17.5
2023-02-08T01:28:40.114Z,21.1
2023-02-08T01:31:42.164Z,19.2
2023-02-08T01:34:44.321Z,19.8
2023-02-08T01:37:46.006Z,21.5
2023-02-08T01:40:47.966Z,20.2
2023-02-08T01:43:49.968Z,19.3
2023-02-08T01:46:51.909Z,18.2
2023-02-08T01:49:53.868Z,18
2023-02-08T01:52:55.819Z,21.4
2023-02-08T01:55:57.820Z,24.9
2023-02-08T01:58:59.740Z,18.8
2023-02-08T02:02:01.747Z,21.1
2023-02-08T02:05:03.705Z,16.9
2023-02-08T02:08:05.643Z,20.4
2023-02-08T02:11:07.584Z,18.3
2023-02-08T02:14:09.560Z,17.5
2023-02-08T02:17:11.510Z,17.6
2023-02-08T02:20:13.489Z,20.3
2023-02-08T02:23:15.422Z,23.7
2023-02-08T02:26:17.385Z,21
2023-02-08T02:29:19.370Z,21.6
2023-02-08T02:32:21.389Z,17.7
2023-02-08T02:35:23.331Z,21.1
2023-02-08T02:38:25.260Z,19.6
2023-02-08T02:41:27.212Z,20.7
2023-02-08T02:44:29.184Z,21.9
2023-02-08T02:47:31.135Z,20.1
2023-02-08T02:50:33.098Z,25
2023-02-08T02:53:35.047Z,21.5
2023-02-08T02:56:37.027Z,18.9
2023-02-08T02:59:38.974Z,21.5
2023-02-08T03:02:40.929Z,21.8
2023-02-08T03:05:42.886Z,21.5
2023-02-08T03:08:44.850Z,21.3
2023-02-08T03:11:46.818Z,21
2023-02-08T03:14:48.835Z,17.6
2023-02-08T03:17:50.776Z,20.7
2023-02-08T03:20:52.717Z,18.1
2023-02-08T03:23:54.698Z,18.7
2023-02-08T03:26:56.757Z,20.5
2023-02-08T03:29:58.652Z,19.6
2023-02-08T03:33:00.625Z,18.3
2023-02-08T03:36:02.592Z,19.6
2023-02-08T03:39:04.545Z,22.1
2023-02-08T03:42:06.507Z,23
2023-02-08T03:45:08.459Z,18.6
2023-02-08T03:48:10.430Z,20
2023-02-08T03:51:12.387Z,24.9
2023-02-08T03:54:14.352Z,19.1
2023-02-08T03:57:16.318Z,22
2023-02-08T04:00:18.281Z,23.8
2023-02-08T04:03:20.218Z,21.7
2023-02-08T04:06:22.178Z,22
2023-02-08T04:09:24.136Z,22.6
2023-02-08T04:12:26.123Z,20.8
2023-02-08T04:15:28.180Z,21.2
2023-02-08T04:18:30.001Z,16.9
2023-02-08T04:21:32.020Z,21.8
2023-02-08T04:24:33.943Z,21
2023-02-08T04:27:35.905Z,21.9
2023-02-08T04:30:37.906Z,18.5
2023-02-08T04:33:39.827Z,18.6
2023-02-08T04:36:41.810Z,21.4
2023-02-08T04:39:43.782Z,20.2
2023-02-08T04:42:45.714Z,16.3
2023-02-08T04:45:47.660Z,21.3
2023-02-08T04:48:49.629Z,20.7
2023-02-08T04:51:51.600Z,19.5
2023-02-08T04:54:53.557Z,17.4
2023-02-08T04:57:55.546Z,22.4
2023-02-08T05:00:57.501Z,19.1
2023-02-08T05:03:59.468Z,20.4
2023-02-08T05:07:01.407Z,20.4
2023-02-08T05:10:03.423Z,21.4
2023-02-08T05:13:05.342Z,22.9
2023-02-08T05:16:07.356Z,20.9
2023-02-08T05:19:09.236Z,22.8
2023-02-08T05:22:11.203Z,19
2023-02-08T05:25:13.189Z,21.6
2023-02-08T05:28:15.161Z,20.7
2023-02-08T05:31:17.298Z,20.7
2023-02-08T05:34:19.092Z,19.3
2023-02-08T05:37:21.034Z,21.6
2023-02-08T05:40:23.006Z,19.4
2023-02-08T05:43:24.993Z,20
2023-02-08T05:46:26.967Z,20.2
2023-02-08T05:49:28.933Z,16.8
2023-02-08T05:52:30.870Z,19.4
2023-02-08T05:55:32.845Z,18.9
2023-02-08T05:58:34.794Z,23.2
2023-02-08T06:01:36.795Z,20.7
2023-02-08T06:04:39.161Z,19
2023-02-08T06:07:40.697Z,21.9
2023-02-08T06:10:42.836Z,20.3
2023-02-08T06:13:44.617Z,17.8
2023-02-08T06:16:46.640Z,16.4
2023-02-08T06:19:48.583Z,18.5
2023-02-08T06:22:50.499Z,18.5
2023-02-08T06:25:52.466Z,17
2023-02-08T06:28:54.426Z,16.6
2023-02-08T06:31:56.448Z,20.3
2023-02-08T06:34:58.372Z,16.3
2023-02-08T06:38:00.326Z,21.5
2023-02-08T06:41:02.245Z,18.4
2023-02-08T06:44:04.215Z,20.5
2023-02-08T06:47:06.145Z,17.4
2023-02-08T06:50:08.118Z,18.7
2023-02-08T06:53:10.109Z,17.5
2023-02-08T06:56:12.034Z,21
2023-02-08T06:59:14.153Z,19.1
2023-02-08T07:02:16.080Z,19.2
2023-02-08T07:05:17.931Z,22.7
2023-02-08T07:08:19.906Z,18
2023-02-08T07:11:21.859Z,18.6
2023-02-08T07:14:23.821Z,18.1
2023-02-08T07:17:25.825Z,20.5
2023-02-08T07:20:27.750Z,18
2023-02-08T07:23:29.695Z,18.6
2023-02-08T07:26:31.687Z,19.8
2023-02-08T07:29:33.629Z,17.5
2023-02-08T07:32:35.591Z,17.7
2023-02-08T07:35:37.560Z,19
2023-02-08T07:38:39.543Z,18.8
2023-02-08T07:41:41.520Z,18.8
2023-02-08T07:44:43.447Z,18.3
2023-02-08T07:47:45.419Z,17
2023-02-08T07:50:47.370Z,17.3
2023-02-08T07:53:49.322Z,18.6
2023-02-08T07:56:51.342Z,17.6
2023-02-08T07:59:54.259Z,19.3
2023-02-08T08:02:55.229Z,17.7
2023-02-08T08:05:57.228Z,18
2023-02-08T08:08:59.141Z,15.8
2023-02-08T08:12:01.107Z,16.7
2023-02-08T08:15:03.115Z,15.9
2023-02-08T08:18:05.037Z,17.8
2023-02-08T08:21:07.002Z,15.1
2023-02-08T08:24:08.985Z,15.2
2023-02-08T08:27:11.004Z,14.9
2023-02-08T08:30:12.872Z,16.5
2023-02-08T08:33:14.826Z,15
2023-02-08T08:36:16.808Z,16.1
2023-02-08T08:39:18.753Z,14.5
2023-02-08T08:42:20.704Z,14.8
2023-02-08T08:45:22.667Z,18
2023-02-08T08:48:24.608Z,16.8
2023-02-08T08:51:26.630Z,17.5
2023-02-08T08:54:28.551Z,19.8
2023-02-08T08:57:30.574Z,19.9
2023-02-08T09:00:32.515Z,19.6
2023-02-08T09:03:34.617Z,18.6
2023-02-08T09:06:36.425Z,20.1
2023-02-08T09:09:38.390Z,18.1
2023-02-08T09:12:40.383Z,20.1
2023-02-08T09:15:42.352Z,20.6
2023-02-08T09:18:44.410Z,18.7
2023-02-08T09:21:46.243Z,22.1
2023-02-08T09:24:48.197Z,19.7
2023-02-08T09:27:50.129Z,19.4
2023-02-08T09:30:52.135Z,19.4
2023-02-08T09:33:54.075Z,18.3
2023-02-08T09:36:56.105Z,19.6
2023-02-08T09:39:58.071Z,21.2
2023-02-08T09:43:00.049Z,23
2023-02-08T09:46:01.997Z,17.4
2023-02-08T09:49:03.956Z,19.2
2023-02-08T09:52:05.890Z,19.6
2023-02-08T09:55:07.860Z,14.3
2023-02-08T09:58:09.921Z,16.1
2023-02-08T10:01:11.901Z,17.3
2023-02-08T10:04:13.807Z,17.8
2023-02-08T10:07:15.762Z,15.9
2023-02-08T10:10:17.752Z,20.5
2023-02-08T10:13:20.500Z,18
2023-02-08T10:16:21.706Z,16
2023-02-08T10:19:23.637Z,18.7
2023-02-08T10:22:25.613Z,14.2
2023-02-08T10:25:27.540Z,17.3
2023-02-08T10:28:29.543Z,16.3
2023-02-08T10:31:31.605Z,18.8
2023-02-08T10:34:33.476Z,16.2
2023-02-08T10:37:35.455Z,16
2023-02-08T10:40:37.388Z,18.5
2023-02-08T10:43:39.359Z,20.9
2023-02-08T10:46:41.320Z,20.5
2023-02-08T10:49:43.283Z,19
2023-02-08T10:52:45.305Z,15.5
2023-02-08T10:55:47.276Z,17.5
2023-02-08T10:58:49.275Z,19.1
2023-02-08T11:01:51.191Z,17.2
2023-02-08T11:04:53.184Z,19
2023-02-08T11:07:55.147Z,20.4
2023-02-08T11:10:57.174Z,20.7
2023-02-08T11:13:59.121Z,16.8
2023-02-08T11:17:01.066Z,17.4
2023-02-08T11:20:03.050Z,17.3
2023-02-08T11:23:05.020Z,16.9
2023-02-08T11:26:06.937Z,16
2023-02-08T11:29:08.894Z,17
2023-02-08T11:32:10.929Z,16.9
2023-02-08T11:35:12.872Z,16
2023-02-08T11:38:14.839Z,19.1
2023-02-08T11:41:16.778Z,15.7
2023-02-08T11:44:18.720Z,17.9
2023-02-08T11:47:21.589Z,16.6
2023-02-08T11:50:22.810Z,17.1
2023-02-08T11:53:24.614Z,16.4
2023-02-08T11:56:26.559Z,20
2023-02-08T11:59:28.513Z,15.5
2023-02-08T12:02:30.632Z,16.2
2023-02-08T12:05:32.450Z,23.3
2023-02-08T12:08:34.438Z,13.6
2023-02-08T12:11:36.407Z,18
2023-02-08T12:14:38.385Z,15
2023-02-08T12:17:40.333Z,15.2
2023-02-08T12:20:42.295Z,16.8
2023-02-08T12:23:44.243Z,19
2023-02-08T12:26:46.202Z,16.5
2023-02-08T12:29:48.565Z,14.6
2023-02-08T12:32:50.148Z,13.8
2023-02-08T12:36:03.476Z,14.6
2023-02-08T12:38:54.071Z,15.7
2023-02-08T12:41:56.039Z,12.6
2023-02-08T12:44:58.048Z,13.6
2023-02-08T12:48:04.277Z,12.7
2023-02-08T12:51:02.002Z,13.3
2023-02-08T12:54:03.929Z,11.2
2023-02-08T12:57:05.879Z,13
2023-02-08T13:00:07.849Z,17.7
2023-02-08T13:03:09.857Z,15.4
2023-02-08T13:06:11.779Z,14.4
2023-02-08T13:09:13.728Z,11.4
2023-02-08T13:12:15.709Z,10.5
2023-02-08T13:15:28.759Z,10.9
2023-02-08T13:18:19.643Z,10
2023-02-08T13:21:21.612Z,9.7
2023-02-08T13:24:23.563Z,11.1
2023-02-08T13:27:25.519Z,10.1
2023-02-08T13:30:27.517Z,11.2
2023-02-08T13:33:29.449Z,9.4
2023-02-08T13:36:31.457Z,9.2
2023-02-08T13:39:33.434Z,8.4
2023-02-08T13:42:35.358Z,11.6
2023-02-08T13:45:37.369Z,12.1
2023-02-08T13:48:39.346Z,10.8
2023-02-08T13:51:41.261Z,12.5
2023-02-08T13:54:43.233Z,11.2
2023-02-08T13:57:45.206Z,12
2023-02-08T14:00:47.323Z,10.6
2023-02-08T14:03:49.111Z,9
2023-02-08T14:06:51.098Z,8.4
2023-02-08T14:09:53.040Z,7.9
2023-02-08T14:12:55.008Z,8
2023-02-08T14:15:57.011Z,11
2023-02-08T14:18:58.922Z,9.2
2023-02-08T14:22:00.873Z,11
2023-02-08T14:25:02.833Z,8.8
2023-02-08T14:28:04.892Z,8.6
2023-02-08T14:31:06.913Z,6.8
2023-02-08T14:34:08.748Z,8.8
2023-02-08T14:37:10.693Z,6.8
2023-02-08T14:40:12.682Z,8.5
2023-02-08T14:43:14.606Z,7.6
2023-02-08T14:46:16.553Z,7.4
2023-02-08T14:49:18.537Z,7
2023-02-08T14:52:20.598Z,8
2023-02-08T14:55:22.490Z,6.5
2023-02-08T14:58:24.428Z,8.2
2023-02-08T15:01:26.389Z,9.4
2023-02-08T15:04:28.384Z,10.5
2023-02-08T15:07:32.408Z,7.1
2023-02-08T15:10:32.305Z,10.4
2023-02-08T15:13:34.310Z,7.2
2023-02-08T15:16:36.272Z,9.1
2023-02-08T15:19:38.216Z,6.7
2023-02-08T15:22:40.289Z,7.3
2023-02-08T15:25:42.123Z,8
2023-02-08T15:28:44.119Z,7.3
2023-02-08T15:31:46.098Z,6.9
2023-02-08T15:34:47.990Z,9
2023-02-08T15:37:50.002Z,7.3
2023-02-08T15:40:51.992Z,9.8
2023-02-08T15:43:53.889Z,8.4
2023-02-08T15:46:55.916Z,8.4
2023-02-08T15:49:57.828Z,8.4
2023-02-08T15:52:59.806Z,6.4
2023-02-08T15:56:01.784Z,7.7
2023-02-08T15:59:03.757Z,7.2
2023-02-08T16:02:05.680Z,8.5
2023-02-08T16:05:07.661Z,7.4
2023-02-08T16:08:09.715Z,8.8
2023-02-08T16:11:11.584Z,7.7
2023-02-08T16:14:13.550Z,8.9
2023-02-08T16:17:15.474Z,7.2
2023-02-08T16:20:17.457Z,9.1
2023-02-08T16:23:19.630Z,10.1
2023-02-08T16:26:21.425Z,9.1
2023-02-08T16:29:23.361Z,8.4
2023-02-08T16:32:25.298Z,8.3
2023-02-08T16:35:27.245Z,7.6
2023-02-08T16:38:29.198Z,8.3
2023-02-08T16:41:31.162Z,8.9
2023-02-08T16:44:33.125Z,9.7
2023-02-08T16:47:35.129Z,7.2
2023-02-08T16:50:37.093Z,9.2
2023-02-08T16:53:42.153Z,7.2
2023-02-08T16:56:41.051Z,8.7
2023-02-08T16:59:43.036Z,11.6
2023-02-08T17:02:44.950Z,12.8
2023-02-08T17:05:46.904Z,9.3
2023-02-08T17:08:48.886Z,12.6
2023-02-08T17:11:50.826Z,10
2023-02-08T17:14:52.800Z,10.7
2023-02-08T17:17:54.795Z,12.3
2023-02-08T17:20:56.734Z,12.3
2023-02-08T17:23:58.701Z,13.4
2023-02-08T17:27:00.730Z,11
2023-02-08T17:30:02.738Z,13
2023-02-08T17:33:04.710Z,16.6
2023-02-08T17:36:06.660Z,16.3
2023-02-08T17:39:08.635Z,14.4
2023-02-08T17:42:10.555Z,14.4
2023-02-08T17:45:12.534Z,15.5
2023-02-08T17:48:14.527Z,14.8
2023-02-08T17:51:16.596Z,11.6
2023-02-08T17:54:18.399Z,15.1
2023-02-08T17:57:20.415Z,13.1
2023-02-08T18:00:22.370Z,17.4
2023-02-08T18:03:24.287Z,15.7
2023-02-08T18:06:26.269Z,15
2023-02-08T18:09:28.219Z,13.6
2023-02-08T18:12:33.310Z,14.4
2023-02-08T18:15:35.265Z,14.7
2023-02-08T18:18:37.191Z,14.8
2023-02-08T18:21:39.167Z,14
2023-02-08T18:24:41.132Z,13.9
2023-02-08T18:27:43.081Z,13.2
2023-02-08T18:30:45.088Z,12.5
2023-02-08T18:33:46.994Z,13.9
2023-02-08T18:36:48.994Z,12.6
2023-02-08T18:39:50.945Z,11.6
2023-02-08T18:42:52.921Z,15.1
2023-02-08T18:45:54.849Z,15.3
2023-02-08T18:48:56.821Z,16.2
2023-02-08T18:51:58.766Z,17.3
2023-02-08T18:55:00.896Z,18.1
2023-02-08T18:58:03.704Z,16
2023-02-08T19:01:04.761Z,14.7
2023-02-08T19:04:06.902Z,13.2
2023-02-08T19:07:08.761Z,13.1
2023-02-08T19:10:10.809Z,15.9
2023-02-08T19:13:12.743Z,17.7
2023-02-08T19:16:14.766Z,14
2023-02-08T19:19:16.669Z,17.4
2023-02-08T19:22:18.642Z,15
2023-02-08T19:25:20.587Z,14.4
2023-02-08T19:28:22.592Z,16.6
2023-02-08T19:31:24.607Z,15.3
2023-02-08T19:34:26.460Z,16.7
2023-02-08T19:37:28.436Z,17.1
2023-02-08T19:40:30.388Z,16.7
2023-02-08T19:43:32.374Z,18.2
2023-02-08T19:46:34.358Z,15.7
2023-02-08T19:49:36.325Z,16.5
2023-02-08T19:52:38.304Z,16.7
2023-02-08T19:55:40.351Z,13.9
2023-02-08T19:58:42.262Z,14.6
2023-02-08T20:01:44.232Z,17.7
2023-02-08T20:04:46.247Z,19.5
2023-02-08T20:07:48.164Z,15.6
2023-02-08T20:10:50.278Z,15.2
2023-02-08T20:13:52.062Z,15.4
2023-02-08T20:16:54.135Z,17.6
2023-02-08T20:19:56.025Z,19.7
2023-02-08T20:22:57.960Z,18
2023-02-08T20:25:59.921Z,17.6
2023-02-08T20:29:01.880Z,17.8
2023-02-08T20:32:03.907Z,16.1
2023-02-08T20:35:05.806Z,20.3
2023-02-08T20:38:07.805Z,19.3
2023-02-08T20:41:09.758Z,22.9
2023-02-08T20:44:11.762Z,18.3
2023-02-08T20:47:13.681Z,21.2
2023-02-08T20:50:18.951Z,16
2023-02-08T20:53:17.682Z,20.2
2023-02-08T20:56:19.614Z,18.3
2023-02-08T20:59:21.578Z,18.5
2023-02-08T21:02:23.557Z,19
2023-02-08T21:05:25.503Z,17.3
2023-02-08T21:08:27.455Z,18.2
2023-02-08T21:11:29.430Z,18.5
2023-02-08T21:14:31.393Z,15.6
2023-02-08T21:17:33.450Z,15.9
2023-02-08T21:20:35.329Z,18.1
2023-02-08T21:23:37.303Z,16.2
2023-02-08T21:26:39.266Z,16.8
2023-02-08T21:29:41.226Z,17.1
2023-02-08T21:32:43.261Z,17.1
2023-02-08T21:35:45.206Z,16.6
2023-02-08T21:38:47.118Z,18.5
2023-02-08T21:41:49.131Z,19.1
2023-02-08T21:44:51.071Z,17.8
2023-02-08T21:47:53.030Z,17.8
2023-02-08T21:50:55.065Z,17.7
2023-02-08T21:53:56.981Z,20.9
2023-02-08T21:56:58.915Z,18.9
2023-02-08T22:00:00.877Z,19.3
2023-02-08T22:03:02.919Z,15.9
2023-02-08T22:06:04.832Z,19
2023-02-08T22:09:06.786Z,18.3
2023-02-08T22:12:08.764Z,17.3
2023-02-08T22:15:10.736Z,23
2023-02-08T22:18:12.680Z,17.6
2023-02-08T22:21:14.658Z,18.8
2023-02-08T22:24:16.594Z,22
2023-02-08T22:27:18.559Z,21.5
2023-02-08T22:30:20.569Z,18.6
2023-02-08T22:33:22.540Z,22.8
2023-02-08T22:36:24.454Z,22.6
2023-02-08T22:39:26.423Z,22.9
2023-02-08T22:42:28.400Z,21.8
2023-02-08T22:45:30.401Z,21.7
2023-02-08T22:48:32.338Z,21.5
2023-02-08T22:51:34.321Z,22.9
2023-02-08T22:54:36.264Z,21.5
2023-02-08T22:57:38.212Z,22.7
2023-02-08T23:00:40.180Z,25.7
2023-02-08T23:03:42.169Z,23.1
2023-02-08T23:06:44.122Z,25.6
2023-02-08T23:09:46.079Z,22.8
2023-02-08T23:12:48.016Z,23.3
2023-02-08T23:15:50.012Z,25.4
2023-02-08T23:18:51.956Z,23
2023-02-08T23:21:53.877Z,25.8
2023-02-08T23:24:55.857Z,26
2023-02-08T23:27:57.860Z,23.8
2023-02-08T23:30:59.823Z,25.1
2023-02-08T23:34:01.717Z,20.7
2023-02-08T23:37:03.687Z,24.2
2023-02-08T23:40:05.657Z,24
2023-02-08T23:43:07.613Z,22.8
2023-02-08T23:46:09.600Z,27.6
2023-02-08T23:49:11.560Z,26
2023-02-08T23:52:13.526Z,25.1
2023-02-08T23:55:15.485Z,22.9
2023-02-08T23:58:17.416Z,20.1
